sensor_id;sensor_type;location;lat;lon;timestamp;temperature;humidity
59975;DHT22;62136;-35.664;-63.766;2023-02-01T00:00:10;31.60;48.20
59975;DHT22;62136;-35.664;-63.766;2023-02-01T00:02:37;31.60;48.20
59975;DHT22;62136;-35.664;-63.766;2023-02-01T00:05:07;31.60;48.30
59975;DHT22;62136;-35.664;-63.766;2023-02-01T00:07:34;31.60;48.30
59975;DHT22;62136;-35.664;-63.766;2023-02-01T00:10:01;31.60;48.30
59975;DHT22;62136;-35.664;-63.766;2023-02-01T00:12:29;31.60;48.40
59975;DHT22;62136;-35.664;-63.766;2023-02-01T00:14:56;31.50;48.40
59975;DHT22;62136;-35.664;-63.766;2023-02-01T00:17:22;31.50;48.50
59975;DHT22;62136;-35.664;-63.766;2023-02-01T00:19:49;31.50;48.50
59975;DHT22;62136;-35.664;-63.766;2023-02-01T00:22:15;31.50;48.50
59975;DHT22;62136;-35.664;-63.766;2023-02-01T00:24:42;31.50;48.50
59975;DHT22;62136;-35.664;-63.766;2023-02-01T00:27:08;31.50;48.60
59975;DHT22;62136;-35.664;-63.766;2023-02-01T00:29:34;31.50;48.60
59975;DHT22;62136;-35.664;-63.766;2023-02-01T00:32:01;31.40;48.60
59975;DHT22;62136;-35.664;-63.766;2023-02-01T00:34:27;31.40;48.70
59975;DHT22;62136;-35.664;-63.766;2023-02-01T00:36:54;31.40;48.80
59975;DHT22;62136;-35.664;-63.766;2023-02-01T00:39:20;31.40;48.80
59975;DHT22;62136;-35.664;-63.766;2023-02-01T00:41:47;31.40;48.80
59975;DHT22;62136;-35.664;-63.766;2023-02-01T00:44:13;31.40;48.80
59975;DHT22;62136;-35.664;-63.766;2023-02-01T00:46:40;31.40;48.90
59975;DHT22;62136;-35.664;-63.766;2023-02-01T00:49:06;31.40;48.90
59975;DHT22;62136;-35.664;-63.766;2023-02-01T00:51:34;31.40;48.90
59975;DHT22;62136;-35.664;-63.766;2023-02-01T00:54:01;31.40;48.90
59975;DHT22;62136;-35.664;-63.766;2023-02-01T00:56:29;31.40;49.00
59975;DHT22;62136;-35.664;-63.766;2023-02-01T00:58:55;31.30;49.00
59975;DHT22;62136;-35.664;-63.766;2023-02-01T01:01:23;31.30;49.00
59975;DHT22;62136;-35.664;-63.766;2023-02-01T01:03:54;31.30;49.00
59975;DHT22;62136;-35.664;-63.766;2023-02-01T01:06:25;31.30;49.10
59975;DHT22;62136;-35.664;-63.766;2023-02-01T01:08:52;31.30;49.10
59975;DHT22;62136;-35.664;-63.766;2023-02-01T01:11:19;31.20;49.10
59975;DHT22;62136;-35.664;-63.766;2023-02-01T01:13:47;31.30;49.10
59975;DHT22;62136;-35.664;-63.766;2023-02-01T01:16:13;31.20;49.10
59975;DHT22;62136;-35.664;-63.766;2023-02-01T01:18:40;31.20;49.20
59975;DHT22;62136;-35.664;-63.766;2023-02-01T01:21:07;31.20;49.20
59975;DHT22;62136;-35.664;-63.766;2023-02-01T01:23:34;31.20;49.20
59975;DHT22;62136;-35.664;-63.766;2023-02-01T01:26:04;31.20;49.20
59975;DHT22;62136;-35.664;-63.766;2023-02-01T01:28:31;31.20;49.30
59975;DHT22;62136;-35.664;-63.766;2023-02-01T01:30:57;31.20;49.30
59975;DHT22;62136;-35.664;-63.766;2023-02-01T01:33:23;31.10;49.30
59975;DHT22;62136;-35.664;-63.766;2023-02-01T01:35:50;31.10;49.30
59975;DHT22;62136;-35.664;-63.766;2023-02-01T01:38:19;31.10;49.40
59975;DHT22;62136;-35.664;-63.766;2023-02-01T01:40:46;31.10;49.40
59975;DHT22;62136;-35.664;-63.766;2023-02-01T01:43:14;31.10;49.40
59975;DHT22;62136;-35.664;-63.766;2023-02-01T01:45:41;31.10;49.50
59975;DHT22;62136;-35.664;-63.766;2023-02-01T01:50:46;31.00;49.70
59975;DHT22;62136;-35.664;-63.766;2023-02-01T01:55:40;31.00;49.70
59975;DHT22;62136;-35.664;-63.766;2023-02-01T01:58:10;30.90;49.70
59975;DHT22;62136;-35.664;-63.766;2023-02-01T02:00:38;30.90;49.80
59975;DHT22;62136;-35.664;-63.766;2023-02-01T02:05:55;30.90;49.90
59975;DHT22;62136;-35.664;-63.766;2023-02-01T02:08:23;30.80;49.90
59975;DHT22;62136;-35.664;-63.766;2023-02-01T02:10:51;30.80;50.00
59975;DHT22;62136;-35.664;-63.766;2023-02-01T02:13:34;30.80;50.00
59975;DHT22;62136;-35.664;-63.766;2023-02-01T02:26:34;30.70;50.20
59975;DHT22;62136;-35.664;-63.766;2023-02-01T02:29:10;30.70;50.20
59975;DHT22;62136;-35.664;-63.766;2023-02-01T02:34:27;30.60;50.30
59975;DHT22;62136;-35.664;-63.766;2023-02-01T02:37:04;30.60;50.20
59975;DHT22;62136;-35.664;-63.766;2023-02-01T02:42:01;30.60;50.30
59975;DHT22;62136;-35.664;-63.766;2023-02-01T02:44:54;30.60;50.30
59975;DHT22;62136;-35.664;-63.766;2023-02-01T02:50:40;30.60;50.30
59975;DHT22;62136;-35.664;-63.766;2023-02-01T02:56:05;30.50;50.30
59975;DHT22;62136;-35.664;-63.766;2023-02-01T02:58:50;30.50;50.30
59975;DHT22;62136;-35.664;-63.766;2023-02-01T03:01:35;30.50;50.30
59975;DHT22;62136;-35.664;-63.766;2023-02-01T03:04:21;30.50;50.30
59975;DHT22;62136;-35.664;-63.766;2023-02-01T03:06:49;30.50;50.20
59975;DHT22;62136;-35.664;-63.766;2023-02-01T03:09:21;30.50;50.20
59975;DHT22;62136;-35.664;-63.766;2023-02-01T03:11:49;30.50;50.20
59975;DHT22;62136;-35.664;-63.766;2023-02-01T03:14:35;30.50;50.20
59975;DHT22;62136;-35.664;-63.766;2023-02-01T03:17:08;30.40;50.20
59975;DHT22;62136;-35.664;-63.766;2023-02-01T03:19:39;30.50;50.10
59975;DHT22;62136;-35.664;-63.766;2023-02-01T03:22:14;30.40;50.10
59975;DHT22;62136;-35.664;-63.766;2023-02-01T03:24:43;30.40;50.10
59975;DHT22;62136;-35.664;-63.766;2023-02-01T03:30:21;30.40;50.10
59975;DHT22;62136;-35.664;-63.766;2023-02-01T03:32:28;30.40;50.00
59975;DHT22;62136;-35.664;-63.766;2023-02-01T03:35:15;30.40;50.00
59975;DHT22;62136;-35.664;-63.766;2023-02-01T03:37:41;30.40;50.00
59975;DHT22;62136;-35.664;-63.766;2023-02-01T03:40:08;30.40;50.00
59975;DHT22;62136;-35.664;-63.766;2023-02-01T03:42:38;30.40;50.00
59975;DHT22;62136;-35.664;-63.766;2023-02-01T03:45:08;30.40;50.00
59975;DHT22;62136;-35.664;-63.766;2023-02-01T03:47:37;30.30;50.00
59975;DHT22;62136;-35.664;-63.766;2023-02-01T03:50:16;30.30;50.00
59975;DHT22;62136;-35.664;-63.766;2023-02-01T03:52:45;30.30;49.90
59975;DHT22;62136;-35.664;-63.766;2023-02-01T03:55:13;30.30;50.00
59975;DHT22;62136;-35.664;-63.766;2023-02-01T03:57:45;30.30;50.00
59975;DHT22;62136;-35.664;-63.766;2023-02-01T04:02:42;30.30;50.20
59975;DHT22;62136;-35.664;-63.766;2023-02-01T04:05:11;30.30;50.20
59975;DHT22;62136;-35.664;-63.766;2023-02-01T04:07:37;30.20;50.20
59975;DHT22;62136;-35.664;-63.766;2023-02-01T04:10:04;30.20;50.60
59975;DHT22;62136;-35.664;-63.766;2023-02-01T04:12:30;30.20;50.20
59975;DHT22;62136;-35.664;-63.766;2023-02-01T04:14:57;30.20;50.30
59975;DHT22;62136;-35.664;-63.766;2023-02-01T04:17:23;30.20;50.50
59975;DHT22;62136;-35.664;-63.766;2023-02-01T04:19:50;30.20;50.50
59975;DHT22;62136;-35.664;-63.766;2023-02-01T04:22:16;30.20;50.60
59975;DHT22;62136;-35.664;-63.766;2023-02-01T04:24:43;30.10;50.60
59975;DHT22;62136;-35.664;-63.766;2023-02-01T04:27:09;30.10;50.70
59975;DHT22;62136;-35.664;-63.766;2023-02-01T04:29:36;30.10;50.90
59975;DHT22;62136;-35.664;-63.766;2023-02-01T04:32:02;30.10;50.90
59975;DHT22;62136;-35.664;-63.766;2023-02-01T04:34:29;30.00;51.00
59975;DHT22;62136;-35.664;-63.766;2023-02-01T04:36:55;30.00;50.90
59975;DHT22;62136;-35.664;-63.766;2023-02-01T04:39:21;30.00;50.90
59975;DHT22;62136;-35.664;-63.766;2023-02-01T04:41:48;30.00;50.90
59975;DHT22;62136;-35.664;-63.766;2023-02-01T04:44:15;30.00;51.00
59975;DHT22;62136;-35.664;-63.766;2023-02-01T04:46:42;30.00;51.10
59975;DHT22;62136;-35.664;-63.766;2023-02-01T04:49:09;30.00;51.20
59975;DHT22;62136;-35.664;-63.766;2023-02-01T04:51:36;30.00;51.20
59975;DHT22;62136;-35.664;-63.766;2023-02-01T04:54:03;30.00;51.10
59975;DHT22;62136;-35.664;-63.766;2023-02-01T04:56:29;30.00;51.10
59975;DHT22;62136;-35.664;-63.766;2023-02-01T04:58:56;30.00;51.20
59975;DHT22;62136;-35.664;-63.766;2023-02-01T05:01:22;29.90;51.20
59975;DHT22;62136;-35.664;-63.766;2023-02-01T05:03:50;29.90;51.20
59975;DHT22;62136;-35.664;-63.766;2023-02-01T05:06:16;29.90;51.30
59975;DHT22;62136;-35.664;-63.766;2023-02-01T05:08:43;29.90;51.40
59975;DHT22;62136;-35.664;-63.766;2023-02-01T05:11:09;29.90;51.50
59975;DHT22;62136;-35.664;-63.766;2023-02-01T05:13:55;29.80;51.50
59975;DHT22;62136;-35.664;-63.766;2023-02-01T05:16:22;29.80;51.60
59975;DHT22;62136;-35.664;-63.766;2023-02-01T05:18:48;29.80;51.60
59975;DHT22;62136;-35.664;-63.766;2023-02-01T05:21:15;29.80;51.70
59975;DHT22;62136;-35.664;-63.766;2023-02-01T05:23:41;29.80;51.90
59975;DHT22;62136;-35.664;-63.766;2023-02-01T05:26:26;29.70;51.90
59975;DHT22;62136;-35.664;-63.766;2023-02-01T05:28:52;29.70;52.00
59975;DHT22;62136;-35.664;-63.766;2023-02-01T05:31:18;29.70;52.20
59975;DHT22;62136;-35.664;-63.766;2023-02-01T05:33:45;29.70;52.20
59975;DHT22;62136;-35.664;-63.766;2023-02-01T05:36:11;29.70;52.20
59975;DHT22;62136;-35.664;-63.766;2023-02-01T05:38:38;29.60;52.20
59975;DHT22;62136;-35.664;-63.766;2023-02-01T05:41:04;29.60;52.20
59975;DHT22;62136;-35.664;-63.766;2023-02-01T05:43:31;29.60;52.30
59975;DHT22;62136;-35.664;-63.766;2023-02-01T05:45:57;29.60;52.30
59975;DHT22;62136;-35.664;-63.766;2023-02-01T05:48:23;29.60;52.40
59975;DHT22;62136;-35.664;-63.766;2023-02-01T05:50:50;29.60;52.60
59975;DHT22;62136;-35.664;-63.766;2023-02-01T05:53:16;29.60;52.70
59975;DHT22;62136;-35.664;-63.766;2023-02-01T05:55:43;29.50;52.70
59975;DHT22;62136;-35.664;-63.766;2023-02-01T05:58:10;29.50;52.90
59975;DHT22;62136;-35.664;-63.766;2023-02-01T06:00:38;29.50;53.00
59975;DHT22;62136;-35.664;-63.766;2023-02-01T06:03:04;29.50;53.00
59975;DHT22;62136;-35.664;-63.766;2023-02-01T06:05:31;29.50;53.50
59975;DHT22;62136;-35.664;-63.766;2023-02-01T06:07:57;29.50;53.00
59975;DHT22;62136;-35.664;-63.766;2023-02-01T06:10:24;29.40;52.90
59975;DHT22;62136;-35.664;-63.766;2023-02-01T06:12:50;29.50;53.10
59975;DHT22;62136;-35.664;-63.766;2023-02-01T06:15:17;29.50;53.00
59975;DHT22;62136;-35.664;-63.766;2023-02-01T06:17:44;29.40;53.10
59975;DHT22;62136;-35.664;-63.766;2023-02-01T06:20:12;29.40;53.10
59975;DHT22;62136;-35.664;-63.766;2023-02-01T06:25:09;29.40;53.20
59975;DHT22;62136;-35.664;-63.766;2023-02-01T06:27:35;29.40;53.40
59975;DHT22;62136;-35.664;-63.766;2023-02-01T06:30:04;29.30;53.30
59975;DHT22;62136;-35.664;-63.766;2023-02-01T06:32:32;29.40;53.50
59975;DHT22;62136;-35.664;-63.766;2023-02-01T06:34:58;29.40;53.50
59975;DHT22;62136;-35.664;-63.766;2023-02-01T06:37:26;29.40;53.50
59975;DHT22;62136;-35.664;-63.766;2023-02-01T06:39:55;29.30;53.50
59975;DHT22;62136;-35.664;-63.766;2023-02-01T06:42:21;29.30;53.40
59975;DHT22;62136;-35.664;-63.766;2023-02-01T06:44:48;29.30;53.60
59975;DHT22;62136;-35.664;-63.766;2023-02-01T06:47:15;29.30;53.60
59975;DHT22;62136;-35.664;-63.766;2023-02-01T06:49:41;29.30;53.50
59975;DHT22;62136;-35.664;-63.766;2023-02-01T06:52:07;29.30;53.60
59975;DHT22;62136;-35.664;-63.766;2023-02-01T06:54:34;29.30;53.60
59975;DHT22;62136;-35.664;-63.766;2023-02-01T06:57:03;29.30;53.70
59975;DHT22;62136;-35.664;-63.766;2023-02-01T06:59:29;29.20;53.60
59975;DHT22;62136;-35.664;-63.766;2023-02-01T07:01:56;29.20;53.70
59975;DHT22;62136;-35.664;-63.766;2023-02-01T07:04:23;29.20;53.70
59975;DHT22;62136;-35.664;-63.766;2023-02-01T07:06:49;29.20;53.80
59975;DHT22;62136;-35.664;-63.766;2023-02-01T07:09:16;29.20;53.80
59975;DHT22;62136;-35.664;-63.766;2023-02-01T07:11:42;29.20;54.30
59975;DHT22;62136;-35.664;-63.766;2023-02-01T07:14:10;29.20;53.80
59975;DHT22;62136;-35.664;-63.766;2023-02-01T07:16:36;29.20;53.90
59975;DHT22;62136;-35.664;-63.766;2023-02-01T07:19:03;29.20;53.90
59975;DHT22;62136;-35.664;-63.766;2023-02-01T07:21:29;29.10;53.80
59975;DHT22;62136;-35.664;-63.766;2023-02-01T07:23:56;29.10;53.90
59975;DHT22;62136;-35.664;-63.766;2023-02-01T07:26:22;29.10;53.90
59975;DHT22;62136;-35.664;-63.766;2023-02-01T07:28:49;29.10;53.90
59975;DHT22;62136;-35.664;-63.766;2023-02-01T07:31:16;29.10;53.90
59975;DHT22;62136;-35.664;-63.766;2023-02-01T07:33:44;29.10;54.00
59975;DHT22;62136;-35.664;-63.766;2023-02-01T07:36:12;29.10;54.00
59975;DHT22;62136;-35.664;-63.766;2023-02-01T07:38:39;29.10;54.00
59975;DHT22;62136;-35.664;-63.766;2023-02-01T07:41:06;29.00;54.00
59975;DHT22;62136;-35.664;-63.766;2023-02-01T07:43:33;29.00;54.10
59975;DHT22;62136;-35.664;-63.766;2023-02-01T07:46:00;29.00;54.10
59975;DHT22;62136;-35.664;-63.766;2023-02-01T07:48:27;29.00;54.20
59975;DHT22;62136;-35.664;-63.766;2023-02-01T07:50:57;29.00;54.30
59975;DHT22;62136;-35.664;-63.766;2023-02-01T07:53:24;28.90;54.30
59975;DHT22;62136;-35.664;-63.766;2023-02-01T07:55:51;28.90;54.30
59975;DHT22;62136;-35.664;-63.766;2023-02-01T07:58:17;28.90;54.30
59975;DHT22;62136;-35.664;-63.766;2023-02-01T08:00:44;28.90;54.40
59975;DHT22;62136;-35.664;-63.766;2023-02-01T08:03:28;28.90;54.30
59975;DHT22;62136;-35.664;-63.766;2023-02-01T08:05:55;28.90;54.40
59975;DHT22;62136;-35.664;-63.766;2023-02-01T08:08:22;28.90;54.30
59975;DHT22;62136;-35.664;-63.766;2023-02-01T08:10:48;28.90;54.40
59975;DHT22;62136;-35.664;-63.766;2023-02-01T08:13:15;28.80;54.40
59975;DHT22;62136;-35.664;-63.766;2023-02-01T08:15:41;28.80;54.80
59975;DHT22;62136;-35.664;-63.766;2023-02-01T08:18:08;28.80;54.50
59975;DHT22;62136;-35.664;-63.766;2023-02-01T08:20:35;28.80;54.50
59975;DHT22;62136;-35.664;-63.766;2023-02-01T08:23:07;28.80;54.50
59975;DHT22;62136;-35.664;-63.766;2023-02-01T08:25:34;28.80;54.50
59975;DHT22;62136;-35.664;-63.766;2023-02-01T08:28:02;28.80;54.50
59975;DHT22;62136;-35.664;-63.766;2023-02-01T08:30:29;28.80;54.50
59975;DHT22;62136;-35.664;-63.766;2023-02-01T08:32:55;28.80;54.60
59975;DHT22;62136;-35.664;-63.766;2023-02-01T08:35:21;28.80;54.50
59975;DHT22;62136;-35.664;-63.766;2023-02-01T08:37:49;28.80;54.60
59975;DHT22;62136;-35.664;-63.766;2023-02-01T08:40:16;28.70;54.60
59975;DHT22;62136;-35.664;-63.766;2023-02-01T08:42:43;28.70;54.60
59975;DHT22;62136;-35.664;-63.766;2023-02-01T08:45:23;28.70;54.60
59975;DHT22;62136;-35.664;-63.766;2023-02-01T08:47:51;28.70;54.70
59975;DHT22;62136;-35.664;-63.766;2023-02-01T08:50:17;28.70;54.60
59975;DHT22;62136;-35.664;-63.766;2023-02-01T08:52:45;28.70;54.70
59975;DHT22;62136;-35.664;-63.766;2023-02-01T08:55:12;28.70;54.80
59975;DHT22;62136;-35.664;-63.766;2023-02-01T08:57:38;28.70;54.80
59975;DHT22;62136;-35.664;-63.766;2023-02-01T09:08:11;28.60;54.80
59975;DHT22;62136;-35.664;-63.766;2023-02-01T09:10:41;28.60;54.90
59975;DHT22;62136;-35.664;-63.766;2023-02-01T09:13:08;28.60;54.90
59975;DHT22;62136;-35.664;-63.766;2023-02-01T09:15:37;28.60;54.90
59975;DHT22;62136;-35.664;-63.766;2023-02-01T09:18:04;28.60;55.00
59975;DHT22;62136;-35.664;-63.766;2023-02-01T09:20:30;28.60;55.00
59975;DHT22;62136;-35.664;-63.766;2023-02-01T09:22:57;28.60;55.10
59975;DHT22;62136;-35.664;-63.766;2023-02-01T09:25:23;28.50;55.10
59975;DHT22;62136;-35.664;-63.766;2023-02-01T09:27:50;28.50;55.10
59975;DHT22;62136;-35.664;-63.766;2023-02-01T09:30:16;28.50;55.10
59975;DHT22;62136;-35.664;-63.766;2023-02-01T09:32:43;28.50;55.10
59975;DHT22;62136;-35.664;-63.766;2023-02-01T09:35:09;28.50;55.10
59975;DHT22;62136;-35.664;-63.766;2023-02-01T09:37:35;28.50;55.20
59975;DHT22;62136;-35.664;-63.766;2023-02-01T09:40:06;28.50;55.20
59975;DHT22;62136;-35.664;-63.766;2023-02-01T09:47:35;28.50;55.30
59975;DHT22;62136;-35.664;-63.766;2023-02-01T09:50:10;28.40;55.40
59975;DHT22;62136;-35.664;-63.766;2023-02-01T09:52:44;28.40;55.40
59975;DHT22;62136;-35.664;-63.766;2023-02-01T09:55:13;28.40;55.30
59975;DHT22;62136;-35.664;-63.766;2023-02-01T09:58:04;28.40;55.50
59975;DHT22;62136;-35.664;-63.766;2023-02-01T10:00:36;28.40;55.60
59975;DHT22;62136;-35.664;-63.766;2023-02-01T10:03:03;28.40;55.60
59975;DHT22;62136;-35.664;-63.766;2023-02-01T10:08:25;28.30;55.60
59975;DHT22;62136;-35.664;-63.766;2023-02-01T10:10:56;28.30;55.70
59975;DHT22;62136;-35.664;-63.766;2023-02-01T10:13:30;28.30;55.90
59975;DHT22;62136;-35.664;-63.766;2023-02-01T10:16:08;28.20;55.90
59975;DHT22;62136;-35.664;-63.766;2023-02-01T10:23:42;28.10;57.10
59975;DHT22;62136;-35.664;-63.766;2023-02-01T10:26:24;28.00;56.90
59975;DHT22;62136;-35.664;-63.766;2023-02-01T10:28:51;28.00;57.20
59975;DHT22;62136;-35.664;-63.766;2023-02-01T10:31:18;27.90;57.90
59975;DHT22;62136;-35.664;-63.766;2023-02-01T10:33:48;27.80;58.20
59975;DHT22;62136;-35.664;-63.766;2023-02-01T10:39:02;27.70;58.30
59975;DHT22;62136;-35.664;-63.766;2023-02-01T10:41:35;27.60;58.30
59975;DHT22;62136;-35.664;-63.766;2023-02-01T10:44:04;27.60;58.60
59975;DHT22;62136;-35.664;-63.766;2023-02-01T10:46:33;27.60;58.70
59975;DHT22;62136;-35.664;-63.766;2023-02-01T10:49:02;27.50;58.70
59975;DHT22;62136;-35.664;-63.766;2023-02-01T10:51:34;27.40;58.70
59975;DHT22;62136;-35.664;-63.766;2023-02-01T10:54:14;27.40;58.80
59975;DHT22;62136;-35.664;-63.766;2023-02-01T10:56:44;27.30;59.00
59975;DHT22;62136;-35.664;-63.766;2023-02-01T10:59:23;27.30;59.10
59975;DHT22;62136;-35.664;-63.766;2023-02-01T11:01:57;27.30;59.10
59975;DHT22;62136;-35.664;-63.766;2023-02-01T11:04:26;27.20;59.10
59975;DHT22;62136;-35.664;-63.766;2023-02-01T11:06:53;27.20;59.00
59975;DHT22;62136;-35.664;-63.766;2023-02-01T11:09:22;27.30;59.00
59975;DHT22;62136;-35.664;-63.766;2023-02-01T11:14:17;27.20;59.30
59975;DHT22;62136;-35.664;-63.766;2023-02-01T11:16:47;27.20;59.40
59975;DHT22;62136;-35.664;-63.766;2023-02-01T11:19:15;27.20;59.40
59975;DHT22;62136;-35.664;-63.766;2023-02-01T11:21:43;27.10;59.40
59975;DHT22;62136;-35.664;-63.766;2023-02-01T11:24:31;27.20;59.40
59975;DHT22;62136;-35.664;-63.766;2023-02-01T11:27:02;27.10;59.50
59975;DHT22;62136;-35.664;-63.766;2023-02-01T11:29:32;27.20;59.70
59975;DHT22;62136;-35.664;-63.766;2023-02-01T11:32:01;27.20;59.30
59975;DHT22;62136;-35.664;-63.766;2023-02-01T11:34:31;27.20;59.60
59975;DHT22;62136;-35.664;-63.766;2023-02-01T11:37:00;27.20;59.50
59975;DHT22;62136;-35.664;-63.766;2023-02-01T11:39:30;27.20;59.60
59975;DHT22;62136;-35.664;-63.766;2023-02-01T11:44:35;27.10;59.50
59975;DHT22;62136;-35.664;-63.766;2023-02-01T11:47:21;27.10;60.10
59975;DHT22;62136;-35.664;-63.766;2023-02-01T11:49:49;27.10;59.70
59975;DHT22;62136;-35.664;-63.766;2023-02-01T11:52:29;27.10;60.10
59975;DHT22;62136;-35.664;-63.766;2023-02-01T11:57:47;27.10;60.40
59975;DHT22;62136;-35.664;-63.766;2023-02-01T12:08:14;27.10;60.50
59975;DHT22;62136;-35.664;-63.766;2023-02-01T12:13:21;27.20;60.40
59975;DHT22;62136;-35.664;-63.766;2023-02-01T12:15:54;27.10;60.50
59975;DHT22;62136;-35.664;-63.766;2023-02-01T12:18:30;27.10;61.00
59975;DHT22;62136;-35.664;-63.766;2023-02-01T12:21:04;27.10;61.50
59975;DHT22;62136;-35.664;-63.766;2023-02-01T12:36:13;27.10;61.60
59975;DHT22;62136;-35.664;-63.766;2023-02-01T12:38:43;27.10;61.30
59975;DHT22;62136;-35.664;-63.766;2023-02-01T12:43:58;27.10;61.20
59975;DHT22;62136;-35.664;-63.766;2023-02-01T12:46:33;27.10;61.80
59975;DHT22;62136;-35.664;-63.766;2023-02-01T12:49:02;27.10;61.50
59975;DHT22;62136;-35.664;-63.766;2023-02-01T12:51:33;27.10;61.30
59975;DHT22;62136;-35.664;-63.766;2023-02-01T12:54:02;27.10;61.30
59975;DHT22;62136;-35.664;-63.766;2023-02-01T12:57:04;27.10;61.50
59975;DHT22;62136;-35.664;-63.766;2023-02-01T12:59:33;27.10;61.60
59975;DHT22;62136;-35.664;-63.766;2023-02-01T13:02:19;27.10;61.30
59975;DHT22;62136;-35.664;-63.766;2023-02-01T13:07:21;27.10;61.50
59975;DHT22;62136;-35.664;-63.766;2023-02-01T13:12:37;27.10;61.60
59975;DHT22;62136;-35.664;-63.766;2023-02-01T13:15:16;27.10;61.40
59975;DHT22;62136;-35.664;-63.766;2023-02-01T13:17:43;27.10;61.40
59975;DHT22;62136;-35.664;-63.766;2023-02-01T13:20:18;27.10;61.70
59975;DHT22;62136;-35.664;-63.766;2023-02-01T13:22:48;27.10;61.70
59975;DHT22;62136;-35.664;-63.766;2023-02-01T13:25:28;27.10;61.80
59975;DHT22;62136;-35.664;-63.766;2023-02-01T13:27:56;27.10;61.90
59975;DHT22;62136;-35.664;-63.766;2023-02-01T13:31:08;27.00;61.80
59975;DHT22;62136;-35.664;-63.766;2023-02-01T13:43:43;27.10;62.50
59975;DHT22;62136;-35.664;-63.766;2023-02-01T13:46:10;27.10;62.50
59975;DHT22;62136;-35.664;-63.766;2023-02-01T13:48:46;27.10;62.50
59975;DHT22;62136;-35.664;-63.766;2023-02-01T13:51:14;27.10;62.70
59975;DHT22;62136;-35.664;-63.766;2023-02-01T13:53:45;27.10;62.60
59975;DHT22;62136;-35.664;-63.766;2023-02-01T13:56:18;27.10;62.70
59975;DHT22;62136;-35.664;-63.766;2023-02-01T13:58:46;27.10;62.70
59975;DHT22;62136;-35.664;-63.766;2023-02-01T14:03:53;27.10;62.60
59975;DHT22;62136;-35.664;-63.766;2023-02-01T14:09:12;27.20;62.70
59975;DHT22;62136;-35.664;-63.766;2023-02-01T14:11:51;27.20;62.60
59975;DHT22;62136;-35.664;-63.766;2023-02-01T14:19:30;27.30;62.50
59975;DHT22;62136;-35.664;-63.766;2023-02-01T14:21:58;27.30;62.30
59975;DHT22;62136;-35.664;-63.766;2023-02-01T14:24:32;27.30;62.10
59975;DHT22;62136;-35.664;-63.766;2023-02-01T14:26:59;27.30;62.10
59975;DHT22;62136;-35.664;-63.766;2023-02-01T14:37:10;27.40;61.50
59975;DHT22;62136;-35.664;-63.766;2023-02-01T14:39:49;27.40;61.50
59975;DHT22;62136;-35.664;-63.766;2023-02-01T14:44:47;27.40;61.30
59975;DHT22;62136;-35.664;-63.766;2023-02-01T14:52:43;27.40;61.20
59975;DHT22;62136;-35.664;-63.766;2023-02-01T14:55:16;27.40;61.10
59975;DHT22;62136;-35.664;-63.766;2023-02-01T14:57:45;27.40;61.00
59975;DHT22;62136;-35.664;-63.766;2023-02-01T15:00:16;27.40;61.00
59975;DHT22;62136;-35.664;-63.766;2023-02-01T15:02:44;27.40;60.90
59975;DHT22;62136;-35.664;-63.766;2023-02-01T15:07:57;27.40;60.80
59975;DHT22;62136;-35.664;-63.766;2023-02-01T15:10:24;27.50;60.80
59975;DHT22;62136;-35.664;-63.766;2023-02-01T15:12:51;27.50;60.70
59975;DHT22;62136;-35.664;-63.766;2023-02-01T15:15:19;27.50;60.50
59975;DHT22;62136;-35.664;-63.766;2023-02-01T15:17:50;27.50;60.20
59975;DHT22;62136;-35.664;-63.766;2023-02-01T15:20:18;27.50;60.20
59975;DHT22;62136;-35.664;-63.766;2023-02-01T15:25:26;27.50;59.90
59975;DHT22;62136;-35.664;-63.766;2023-02-01T15:27:53;27.50;59.90
59975;DHT22;62136;-35.664;-63.766;2023-02-01T15:30:21;27.60;59.70
59975;DHT22;62136;-35.664;-63.766;2023-02-01T15:32:50;27.60;59.50
59975;DHT22;62136;-35.664;-63.766;2023-02-01T15:38:38;27.60;59.20
59975;DHT22;62136;-35.664;-63.766;2023-02-01T15:41:07;27.60;59.10
59975;DHT22;62136;-35.664;-63.766;2023-02-01T15:43:36;27.60;58.80
59975;DHT22;62136;-35.664;-63.766;2023-02-01T15:46:06;27.60;58.70
59975;DHT22;62136;-35.664;-63.766;2023-02-01T15:48:43;27.60;58.80
59975;DHT22;62136;-35.664;-63.766;2023-02-01T15:51:12;27.60;58.70
59975;DHT22;62136;-35.664;-63.766;2023-02-01T15:53:42;27.60;58.70
59975;DHT22;62136;-35.664;-63.766;2023-02-01T15:56:12;27.60;58.40
59975;DHT22;62136;-35.664;-63.766;2023-02-01T15:58:41;27.60;58.30
59975;DHT22;62136;-35.664;-63.766;2023-02-01T16:01:10;27.60;58.10
59975;DHT22;62136;-35.664;-63.766;2023-02-01T16:03:44;27.60;58.00
59975;DHT22;62136;-35.664;-63.766;2023-02-01T16:06:26;27.60;57.80
59975;DHT22;62136;-35.664;-63.766;2023-02-01T16:11:59;27.60;57.50
59975;DHT22;62136;-35.664;-63.766;2023-02-01T16:14:26;27.60;57.60
59975;DHT22;62136;-35.664;-63.766;2023-02-01T16:16:54;27.60;57.40
59975;DHT22;62136;-35.664;-63.766;2023-02-01T16:19:25;27.60;57.20
59975;DHT22;62136;-35.664;-63.766;2023-02-01T16:21:54;27.60;56.80
59975;DHT22;62136;-35.664;-63.766;2023-02-01T16:24:21;27.60;56.90
59975;DHT22;62136;-35.664;-63.766;2023-02-01T16:26:50;27.60;56.80
59975;DHT22;62136;-35.664;-63.766;2023-02-01T16:29:17;27.60;56.70
59975;DHT22;62136;-35.664;-63.766;2023-02-01T16:31:44;27.60;56.40
59975;DHT22;62136;-35.664;-63.766;2023-02-01T16:34:13;27.60;56.00
59975;DHT22;62136;-35.664;-63.766;2023-02-01T16:36:40;27.70;56.20
59975;DHT22;62136;-35.664;-63.766;2023-02-01T16:39:08;27.60;55.60
59975;DHT22;62136;-35.664;-63.766;2023-02-01T16:41:34;27.70;55.20
59975;DHT22;62136;-35.664;-63.766;2023-02-01T16:44:01;27.70;55.30
59975;DHT22;62136;-35.664;-63.766;2023-02-01T16:46:28;27.70;55.40
59975;DHT22;62136;-35.664;-63.766;2023-02-01T16:48:58;27.80;55.40
59975;DHT22;62136;-35.664;-63.766;2023-02-01T16:51:27;27.80;55.00
59975;DHT22;62136;-35.664;-63.766;2023-02-01T16:53:54;27.80;55.00
59975;DHT22;62136;-35.664;-63.766;2023-02-01T16:56:22;27.90;55.10
59975;DHT22;62136;-35.664;-63.766;2023-02-01T16:58:49;27.90;54.90
59975;DHT22;62136;-35.664;-63.766;2023-02-01T17:01:17;27.80;54.90
59975;DHT22;62136;-35.664;-63.766;2023-02-01T17:03:46;27.90;54.80
59975;DHT22;62136;-35.664;-63.766;2023-02-01T17:06:19;27.90;54.80
59975;DHT22;62136;-35.664;-63.766;2023-02-01T17:11:50;28.00;54.60
59975;DHT22;62136;-35.664;-63.766;2023-02-01T17:14:17;28.00;54.50
59975;DHT22;62136;-35.664;-63.766;2023-02-01T17:16:45;28.00;54.30
59975;DHT22;62136;-35.664;-63.766;2023-02-01T17:19:13;28.00;54.30
59975;DHT22;62136;-35.664;-63.766;2023-02-01T17:21:43;28.00;54.20
59975;DHT22;62136;-35.664;-63.766;2023-02-01T17:24:14;28.00;54.20
59975;DHT22;62136;-35.664;-63.766;2023-02-01T17:26:41;28.10;54.30
59975;DHT22;62136;-35.664;-63.766;2023-02-01T17:29:10;28.10;54.20
59975;DHT22;62136;-35.664;-63.766;2023-02-01T17:31:38;28.10;54.20